createdAt,value
2024-01-10T00:01:55.761Z,17.02
2024-01-10T00:04:25.678Z,14.82
2024-01-10T00:06:55.494Z,17.95
2024-01-10T00:09:25.589Z,15.18
2024-01-10T00:12:00.908Z,16.83
2024-01-10T00:14:30.753Z,16.25
2024-01-10T00:17:00.691Z,15.93
2024-01-10T00:19:30.521Z,15.20
2024-01-10T00:22:00.329Z,15.50
2024-01-10T00:24:30.170Z,18.55
2024-01-10T00:27:02.493Z,17.77
2024-01-10T00:29:32.583Z,16.30
2024-01-10T00:32:03.248Z,15.13
2024-01-10T00:34:33.178Z,18.00
2024-01-10T00:37:02.942Z,17.73
2024-01-10T00:39:32.679Z,18.38
2024-01-10T00:42:05.101Z,16.00
2024-01-10T00:44:34.872Z,14.35
2024-01-10T00:47:04.662Z,18.73
2024-01-10T00:49:34.556Z,17.95
2024-01-10T00:52:04.408Z,17.27
2024-01-10T00:54:34.253Z,15.75
2024-01-10T00:57:07.308Z,17.83
2024-01-10T00:59:37.142Z,18.15
2024-01-10T01:02:04.815Z,14.85
2024-01-10T01:04:34.628Z,15.85
2024-01-10T01:07:04.666Z,17.73
2024-01-10T01:09:34.624Z,17.98
2024-01-10T01:12:07.945Z,15.25
2024-01-10T01:14:38.279Z,15.43
2024-01-10T01:17:08.143Z,13.32
2024-01-10T01:19:38.008Z,15.63
2024-01-10T01:22:07.965Z,16.95
2024-01-10T01:24:37.856Z,19.50
2024-01-10T01:27:10.508Z,16.50
2024-01-10T01:29:40.304Z,16.85
2024-01-10T01:32:10.397Z,13.35
2024-01-10T01:34:40.335Z,19.23
2024-01-10T01:37:10.923Z,20.40
2024-01-10T01:39:40.787Z,16.52
2024-01-10T01:42:13.241Z,14.77
2024-01-10T01:44:45.611Z,14.52
2024-01-10T01:47:15.855Z,16.05
2024-01-10T01:49:46.675Z,16.95
2024-01-10T01:52:16.823Z,14.32
2024-01-10T01:54:46.739Z,15.77
2024-01-10T01:57:19.097Z,15.10
2024-01-10T01:59:48.904Z,16.05
2024-01-10T02:02:19.105Z,19.17
2024-01-10T02:04:53.554Z,14.05
2024-01-10T02:07:24.522Z,14.18
2024-01-10T02:09:54.841Z,14.15
2024-01-10T02:12:28.090Z,16.77
2024-01-10T02:14:57.939Z,12.87
2024-01-10T02:17:28.517Z,14.75
2024-01-10T02:20:12.113Z,17.27
2024-01-10T02:22:42.092Z,16.80
2024-01-10T02:25:14.937Z,13.20
2024-01-10T02:27:45.358Z,18.10
2024-01-10T02:30:15.771Z,14.32
2024-01-10T02:32:45.647Z,18.33
2024-01-10T02:35:15.831Z,15.18
2024-01-10T02:37:46.232Z,18.88
2024-01-10T02:40:18.993Z,16.00
2024-01-10T02:42:49.012Z,18.95
2024-01-10T02:45:18.991Z,16.08
2024-01-10T02:47:49.408Z,17.08
2024-01-10T02:50:19.533Z,16.35
2024-01-10T02:52:49.504Z,19.15
2024-01-10T02:55:22.107Z,13.52
2024-01-10T02:57:52.012Z,17.23
2024-01-10T03:00:22.178Z,19.98
2024-01-10T03:02:51.945Z,14.43
2024-01-10T03:05:21.903Z,18.52
2024-01-10T03:07:51.868Z,17.55
2024-01-10T03:10:24.385Z,18.23
2024-01-10T03:12:54.495Z,14.88
2024-01-10T03:15:24.580Z,25.42
2024-01-10T03:17:54.448Z,24.10
2024-01-10T03:20:24.407Z,19.52
2024-01-10T03:22:54.299Z,19.02
2024-01-10T03:25:26.799Z,14.35
2024-01-10T03:27:56.763Z,15.98
2024-01-10T03:30:26.866Z,16.50
2024-01-10T03:32:56.955Z,18.63
2024-01-10T03:35:27.074Z,20.02
2024-01-10T03:37:57.026Z,18.38
2024-01-10T03:40:29.434Z,18.25
2024-01-10T03:42:59.509Z,16.35
2024-01-10T03:45:30.027Z,18.55
2024-01-10T03:47:59.849Z,19.58
2024-01-10T03:50:29.732Z,19.58
2024-01-10T03:52:59.607Z,19.58
2024-01-10T03:55:33.921Z,18.45
2024-01-10T03:58:03.889Z,14.82
2024-01-10T04:00:33.742Z,19.42
2024-01-10T04:03:04.888Z,18.08
2024-01-10T04:05:34.841Z,17.80
2024-01-10T04:08:05.238Z,18.23
2024-01-10T04:10:37.777Z,18.75
2024-01-10T04:13:07.997Z,18.30
2024-01-10T04:15:38.679Z,20.38
2024-01-10T04:18:09.094Z,17.33
2024-01-10T04:20:39.088Z,19.45
2024-01-10T04:23:09.126Z,18.13
2024-01-10T04:25:41.667Z,19.00
2024-01-10T04:28:11.495Z,16.92
2024-01-10T04:30:41.336Z,16.13
2024-01-10T04:33:13.968Z,17.00
2024-01-10T04:35:43.758Z,17.40
2024-01-10T04:38:13.561Z,18.77
2024-01-10T04:40:48.214Z,16.15
2024-01-10T04:43:18.106Z,18.33
2024-01-10T04:45:47.948Z,19.48
2024-01-10T04:48:17.851Z,17.38
2024-01-10T04:50:50.489Z,17.25
2024-01-10T04:53:20.365Z,14.95
2024-01-10T04:55:52.896Z,22.42
2024-01-10T04:58:22.671Z,15.45
2024-01-10T05:00:52.559Z,14.73
2024-01-10T05:03:22.815Z,15.93
2024-01-10T05:05:52.840Z,16.55
2024-01-10T05:08:23.248Z,17.52
2024-01-10T05:10:55.991Z,14.88
2024-01-10T05:13:26.333Z,18.00
2024-01-10T05:15:56.680Z,16.70
2024-01-10T05:18:26.749Z,17.85
2024-01-10T05:20:56.586Z,14.85
2024-01-10T05:23:26.505Z,15.63
2024-01-10T05:26:02.200Z,18.20
2024-01-10T05:28:31.996Z,19.02
2024-01-10T05:31:03.325Z,18.70
2024-01-10T05:33:33.337Z,19.92
2024-01-10T05:36:04.062Z,16.80
2024-01-10T05:38:38.437Z,18.77
2024-01-10T05:41:11.269Z,16.25
2024-01-10T05:43:42.142Z,19.98
2024-01-10T05:46:12.063Z,19.65
2024-01-10T05:48:42.981Z,21.45
2024-01-10T05:51:13.544Z,19.75
2024-01-10T05:53:43.444Z,20.65
2024-01-10T05:56:18.122Z,22.40
2024-01-10T05:58:48.332Z,16.52
2024-01-10T06:01:18.296Z,19.83
2024-01-10T06:03:48.365Z,20.27
2024-01-10T06:06:19.667Z,20.27
2024-01-10T06:08:52.320Z,16.90
2024-01-10T06:11:25.019Z,15.65
2024-01-10T06:13:57.596Z,19.85
2024-01-10T06:16:28.331Z,19.73
2024-01-10T06:19:01.201Z,16.55
2024-01-10T06:21:31.164Z,17.70
2024-01-10T06:24:01.027Z,18.10
2024-01-10T06:26:33.755Z,20.10
2024-01-10T06:29:03.818Z,16.77
2024-01-10T06:31:33.825Z,15.90
2024-01-10T06:34:03.661Z,18.42
2024-01-10T06:36:33.467Z,20.90
2024-01-10T06:39:03.248Z,16.92
2024-01-10T06:41:35.803Z,18.33
2024-01-10T06:44:06.941Z,28.00
2024-01-10T06:46:36.992Z,20.85
2024-01-10T06:49:08.712Z,20.77
2024-01-10T06:51:43.740Z,15.95
2024-01-10T06:54:15.077Z,17.98
2024-01-10T06:56:48.210Z,17.73
2024-01-10T06:59:18.649Z,17.80
2024-01-10T07:01:48.631Z,20.60
2024-01-10T07:04:20.604Z,18.52
2024-01-10T07:06:51.464Z,17.98
2024-01-10T07:09:21.764Z,17.00
2024-01-10T07:11:54.366Z,15.23
2024-01-10T07:14:24.358Z,19.15
2024-01-10T07:16:57.395Z,25.17
2024-01-10T07:19:27.515Z,28.67
2024-01-10T07:22:02.116Z,21.92
2024-01-10T07:24:35.759Z,19.75
2024-01-10T07:27:09.147Z,24.83
2024-01-10T07:29:39.172Z,24.23
2024-01-10T07:32:16.183Z,19.17
2024-01-10T07:34:46.504Z,15.55
2024-01-10T07:37:22.383Z,21.58
2024-01-10T07:39:52.764Z,17.80
2024-01-10T07:42:25.986Z,14.68
2024-01-10T07:44:57.002Z,17.88
2024-01-10T07:47:29.486Z,17.25
2024-01-10T07:49:59.755Z,16.88
2024-01-10T07:52:30.127Z,16.80
2024-01-10T07:55:00.209Z,17.02
2024-01-10T07:57:33.749Z,20.83
2024-01-10T08:00:05.368Z,15.63
2024-01-10T08:02:40.508Z,15.23
2024-01-10T08:05:12.308Z,21.63
2024-01-10T08:07:42.319Z,18.02
2024-01-10T08:10:20.215Z,25.88
2024-01-10T08:12:54.013Z,22.00
2024-01-10T08:15:24.097Z,21.20
2024-01-10T08:17:54.129Z,23.33
2024-01-10T08:20:24.152Z,24.33
2024-01-10T08:22:54.901Z,21.63
2024-01-10T08:25:24.841Z,19.73
2024-01-10T08:27:58.926Z,18.02
2024-01-10T08:32:58.597Z,20.58
2024-01-10T08:35:29.176Z,20.85
2024-01-10T08:37:59.494Z,21.17
2024-01-10T08:40:29.425Z,20.75
2024-01-10T08:43:02.636Z,21.52
2024-01-10T08:45:33.576Z,19.15
2024-01-10T08:48:06.269Z,18.77
2024-01-10T08:50:36.558Z,17.83
2024-01-10T08:53:07.351Z,21.20
2024-01-10T08:55:38.518Z,17.63
2024-01-10T08:58:11.285Z,20.27
2024-01-10T09:00:41.625Z,20.00
2024-01-10T09:03:11.579Z,20.30
2024-01-10T09:05:43.478Z,28.27
2024-01-10T09:08:17.335Z,26.75
2024-01-10T09:10:47.229Z,24.92
2024-01-10T09:13:20.036Z,27.08
2024-01-10T09:15:49.861Z,23.38
2024-01-10T09:18:20.004Z,43.58
2024-01-10T09:20:49.880Z,44.85
2024-01-10T09:23:20.224Z,32.90
2024-01-10T09:25:50.086Z,25.33
2024-01-10T09:28:22.534Z,26.25
2024-01-10T09:30:53.021Z,22.48
2024-01-10T09:33:24.060Z,20.25
2024-01-10T09:35:53.923Z,20.88
2024-01-10T09:38:24.030Z,22.55
2024-01-10T09:40:53.882Z,16.48
2024-01-10T09:43:26.271Z,20.45
2024-01-10T09:45:57.402Z,20.70
2024-01-10T09:48:27.452Z,18.95
2024-01-10T09:50:57.395Z,19.75
2024-01-10T09:53:28.767Z,15.98
2024-01-10T09:56:02.497Z,19.73
2024-01-10T09:58:40.440Z,20.50
2024-01-10T10:01:10.749Z,20.42
2024-01-10T10:03:42.088Z,18.25
2024-01-10T10:06:15.081Z,23.70
2024-01-10T10:08:46.026Z,20.70
2024-01-10T10:11:16.454Z,16.90
2024-01-10T10:13:48.893Z,20.77
2024-01-10T10:16:29.440Z,21.27
2024-01-10T10:18:59.996Z,21.73
2024-01-10T10:21:31.909Z,19.40
2024-01-10T10:24:04.181Z,30.92
2024-01-10T10:26:36.953Z,29.67
2024-01-10T10:29:09.412Z,21.58
2024-01-10T10:31:40.016Z,21.35
2024-01-10T10:34:10.046Z,21.23
2024-01-10T10:36:40.070Z,26.48
2024-01-10T10:39:14.810Z,18.83
2024-01-10T10:41:45.294Z,18.25
2024-01-10T10:44:22.222Z,20.02
2024-01-10T10:47:05.506Z,14.80
2024-01-10T10:49:50.797Z,16.73
2024-01-10T10:52:21.175Z,17.70
2024-01-10T10:54:52.195Z,18.85
2024-01-10T10:57:22.321Z,16.45
2024-01-10T10:59:56.184Z,14.80
2024-01-10T11:02:31.266Z,16.25
2024-01-10T11:05:02.631Z,17.60
2024-01-10T11:07:32.786Z,14.70
2024-01-10T11:10:03.904Z,15.00
2024-01-10T11:12:47.301Z,16.20
2024-01-10T11:15:25.476Z,19.65
2024-01-10T11:18:11.060Z,16.15
2024-01-10T11:20:55.180Z,17.73
2024-01-10T11:23:41.270Z,15.13
2024-01-10T11:26:12.134Z,17.00
2024-01-10T11:28:42.135Z,19.45
2024-01-10T11:31:14.858Z,16.00
2024-01-10T11:34:03.637Z,18.75
2024-01-10T11:37:03.767Z,19.20
2024-01-10T12:22:20.629Z,19.63
2024-01-10T12:24:53.772Z,22.17
2024-01-10T12:27:27.192Z,21.00
2024-01-10T12:29:57.586Z,21.33
2024-01-10T12:32:27.540Z,21.83
2024-01-10T12:35:04.706Z,21.92
2024-01-10T12:37:35.071Z,26.90
2024-01-10T12:40:09.746Z,34.60
2024-01-10T12:42:44.489Z,25.80
2024-01-10T12:45:24.809Z,25.77
2024-01-10T12:47:57.877Z,20.70
2024-01-10T12:50:28.970Z,26.38
2024-01-10T12:52:59.343Z,28.42
2024-01-10T12:55:30.471Z,23.10
2024-01-10T12:58:08.098Z,19.95
2024-01-10T13:00:38.992Z,25.35
2024-01-10T13:03:08.983Z,20.70
2024-01-10T13:05:39.056Z,23.50
2024-01-10T13:08:09.318Z,24.55
2024-01-10T13:10:39.331Z,24.50
2024-01-10T13:13:11.863Z,25.15
2024-01-10T13:15:41.971Z,24.25
2024-01-10T13:18:12.512Z,28.58
2024-01-10T13:20:42.503Z,24.38
2024-01-10T13:23:12.583Z,18.60
2024-01-10T13:25:42.873Z,19.60
2024-01-10T13:28:16.611Z,29.95
2024-01-10T13:30:47.050Z,21.80
2024-01-10T13:33:17.485Z,20.77
2024-01-10T13:35:47.651Z,23.13
2024-01-10T13:38:19.948Z,23.60
2024-01-10T13:40:50.005Z,22.88
2024-01-10T13:43:22.513Z,28.17
2024-01-10T13:45:53.602Z,24.75
2024-01-10T13:51:16.881Z,20.13
2024-01-10T13:53:55.670Z,26.27
2024-01-10T13:56:25.980Z,19.77
2024-01-10T13:59:01.663Z,26.90
2024-01-10T14:01:35.099Z,28.80
2024-01-10T14:04:11.370Z,20.35
2024-01-10T14:06:48.824Z,22.48
2024-01-10T14:09:21.868Z,20.48
2024-01-10T14:11:52.646Z,24.65
2024-01-10T14:14:26.431Z,28.80
2024-01-10T14:16:56.924Z,24.02
2024-01-10T14:19:27.460Z,21.23
2024-01-10T14:21:57.232Z,22.83
2024-01-10T14:24:29.073Z,20.58
2024-01-10T14:26:59.886Z,21.95
2024-01-10T14:29:34.932Z,27.50
2024-01-10T14:32:17.046Z,31.60
2024-01-10T14:34:48.458Z,23.77
2024-01-10T14:37:18.685Z,22.15
2024-01-10T14:39:48.679Z,26.65
2024-01-10T14:42:21.063Z,27.80
2024-01-10T14:44:53.503Z,29.13
2024-01-10T14:47:24.090Z,28.48
2024-01-10T14:49:54.099Z,68.90
2024-01-10T14:52:23.994Z,30.25
2024-01-10T14:54:53.822Z,46.80
2024-01-10T14:57:23.605Z,25.20
2024-01-10T14:59:56.331Z,29.90
2024-01-10T15:02:26.355Z,30.80
2024-01-10T15:04:56.648Z,25.90
2024-01-10T15:07:27.656Z,128.90
2024-01-10T15:09:59.860Z,47.75
2024-01-10T15:12:30.517Z,84.95
2024-01-10T15:15:03.536Z,223.10
2024-01-10T15:17:33.499Z,169.80
2024-01-10T15:20:03.741Z,216.88
2024-01-10T15:22:34.125Z,32.00
2024-01-10T15:25:03.941Z,331.25
2024-01-10T15:27:34.129Z,142.88
2024-01-10T15:30:15.696Z,63.40
2024-01-10T15:32:47.477Z,33.28
2024-01-10T15:35:17.796Z,32.78
2024-01-10T15:37:48.355Z,31.25
2024-01-10T15:40:18.218Z,32.67
2024-01-10T15:42:48.131Z,35.80
2024-01-10T15:45:20.733Z,32.00
2024-01-10T15:47:50.657Z,36.53
2024-01-10T15:50:21.164Z,32.35
2024-01-10T15:52:52.454Z,35.25
2024-01-10T15:55:22.672Z,35.03
2024-01-10T15:57:52.465Z,34.53
2024-01-10T16:00:25.028Z,40.17
2024-01-10T16:02:54.956Z,36.15
2024-01-10T16:05:26.021Z,32.95
2024-01-10T16:07:56.744Z,34.80
2024-01-10T16:10:29.716Z,32.20
2024-01-10T16:12:59.715Z,35.30
2024-01-10T16:15:32.096Z,73.10
2024-01-10T16:18:02.002Z,54.72
2024-01-10T16:20:31.885Z,32.45
2024-01-10T16:23:02.194Z,33.88
2024-01-10T16:25:32.758Z,37.25
2024-01-10T16:28:02.670Z,36.33
2024-01-10T16:30:35.109Z,37.70
2024-01-10T16:33:05.333Z,40.65
2024-01-10T16:35:35.686Z,40.75
2024-01-10T16:38:05.872Z,36.75
2024-01-10T16:40:35.971Z,38.45
2024-01-10T16:43:07.109Z,36.67
2024-01-10T16:45:39.715Z,37.78
2024-01-10T16:48:11.206Z,39.88
2024-01-10T16:50:42.790Z,36.97
2024-01-10T16:53:12.920Z,37.03
2024-01-10T16:55:49.573Z,39.80
2024-01-10T16:58:22.573Z,41.38
2024-01-10T17:00:58.602Z,38.10
2024-01-10T17:03:28.698Z,42.65
2024-01-10T17:05:58.981Z,39.90
2024-01-10T17:08:31.374Z,51.58
2024-01-10T17:11:06.479Z,45.38
2024-01-10T17:13:37.401Z,44.97
2024-01-10T17:16:10.982Z,47.85
2024-01-10T17:21:28.244Z,41.38
2024-01-10T17:23:59.698Z,43.13
2024-01-10T17:26:30.984Z,45.88
2024-01-10T17:29:21.173Z,45.90
2024-01-10T17:31:53.977Z,50.67
2024-01-10T17:34:24.212Z,46.30
2024-01-10T17:36:54.240Z,41.33
2024-01-10T17:39:25.581Z,46.80
2024-01-10T17:41:55.382Z,45.03
2024-01-10T17:44:25.358Z,46.22
2024-01-10T17:46:57.920Z,46.58
2024-01-10T17:49:28.025Z,49.67
2024-01-10T17:51:58.671Z,45.78
2024-01-10T17:54:29.247Z,45.13
2024-01-10T17:57:00.740Z,48.33
2024-01-10T17:59:30.922Z,48.72
2024-01-10T18:02:03.699Z,49.80
2024-01-10T18:04:34.053Z,47.55
2024-01-10T18:07:04.563Z,45.55
2024-01-10T18:09:34.980Z,41.38
2024-01-10T18:12:05.368Z,47.75
2024-01-10T18:14:35.325Z,51.17
2024-01-10T18:17:08.258Z,43.42
2024-01-10T18:19:42.460Z,41.25
2024-01-10T18:24:47.584Z,46.63
2024-01-10T18:27:23.306Z,41.60
2024-01-10T18:29:58.410Z,45.35
2024-01-10T18:32:32.053Z,51.60
2024-01-10T18:35:05.510Z,46.22
2024-01-10T18:37:37.067Z,53.30
2024-01-10T18:40:10.479Z,57.08
2024-01-10T18:42:40.607Z,49.83
2024-01-10T18:45:13.888Z,51.50
2024-01-10T18:47:50.521Z,54.10
2024-01-10T18:50:20.907Z,49.28
2024-01-10T18:52:51.090Z,48.25
2024-01-10T18:55:22.068Z,51.85
2024-01-10T18:57:54.346Z,51.80
2024-01-10T19:00:28.384Z,53.25
2024-01-10T19:03:01.902Z,53.38
2024-01-10T19:05:35.071Z,51.63
2024-01-10T19:08:08.207Z,52.95
2024-01-10T19:10:42.088Z,55.58
2024-01-10T19:13:11.928Z,57.38
2024-01-10T19:15:42.084Z,51.38
2024-01-10T19:18:17.336Z,61.20
2024-01-10T19:20:47.646Z,58.92
2024-01-10T19:23:19.926Z,56.15
2024-01-10T19:25:50.300Z,53.55
2024-01-10T19:28:23.292Z,53.15
2024-01-10T19:30:57.204Z,53.70
2024-01-10T19:33:30.397Z,50.40
2024-01-10T19:36:00.577Z,61.57
2024-01-10T19:38:31.035Z,51.58
2024-01-10T19:41:03.712Z,67.70
2024-01-10T19:43:33.717Z,60.10
2024-01-10T19:46:03.789Z,64.07
2024-01-10T19:48:36.563Z,62.08
2024-01-10T19:51:06.639Z,52.95
2024-01-10T19:53:36.672Z,63.88
2024-01-10T19:56:06.696Z,56.20
2024-01-10T19:58:38.744Z,54.38
2024-01-10T20:01:08.672Z,57.25
2024-01-10T20:03:41.570Z,95.95
2024-01-10T20:06:11.857Z,54.55
2024-01-10T20:08:41.724Z,51.42
2024-01-10T20:11:11.816Z,57.42
2024-01-10T20:13:42.549Z,55.40
2024-01-10T20:16:12.480Z,62.65
2024-01-10T20:18:44.952Z,68.45
2024-01-10T20:21:18.036Z,76.57
2024-01-10T20:23:49.105Z,75.80
2024-01-10T20:26:19.292Z,69.25
2024-01-10T20:28:49.370Z,61.17
2024-01-10T20:31:21.388Z,71.70
2024-01-10T20:33:54.313Z,66.57
2024-01-10T20:36:24.279Z,70.95
2024-01-10T20:38:54.111Z,64.97
2024-01-10T20:41:23.911Z,58.28
2024-01-10T20:43:53.778Z,74.68
2024-01-10T20:46:23.590Z,74.50
2024-01-10T20:48:58.131Z,74.93
2024-01-10T20:51:27.920Z,75.80
2024-01-10T20:53:57.881Z,72.90
2024-01-10T20:56:27.909Z,76.65
2024-01-10T20:58:58.126Z,66.90
2024-01-10T21:01:28.551Z,67.13
2024-01-10T21:04:01.071Z,66.10
2024-01-10T21:06:30.878Z,71.30
2024-01-10T21:09:00.962Z,69.40
2024-01-10T21:11:30.873Z,64.47
2024-01-10T21:14:03.618Z,67.00
2024-01-10T21:16:33.477Z,69.13
2024-01-10T21:19:13.637Z,73.53
2024-01-10T21:21:43.694Z,73.63
2024-01-10T21:24:13.527Z,139.82
2024-01-10T21:26:44.944Z,73.07
2024-01-10T21:29:15.978Z,65.97
2024-01-10T21:31:45.877Z,68.75
2024-01-10T21:34:18.479Z,80.57
2024-01-10T21:36:48.325Z,75.68
2024-01-10T21:39:18.307Z,69.10
2024-01-10T21:41:48.338Z,62.03
2024-01-10T21:44:18.412Z,60.13
2024-01-10T21:46:48.216Z,59.30
2024-01-10T21:49:20.867Z,72.70
2024-01-10T21:51:50.905Z,65.57
2024-01-10T21:54:21.165Z,66.07
2024-01-10T21:56:51.020Z,65.57
2024-01-10T21:59:21.002Z,63.58
2024-01-10T22:01:51.693Z,64.55
2024-01-10T22:04:24.267Z,65.63
2024-01-10T22:06:54.262Z,63.35
2024-01-10T22:09:24.129Z,60.72
2024-01-10T22:11:54.013Z,66.55
2024-01-10T22:14:24.359Z,60.20
2024-01-10T22:16:54.238Z,65.05
2024-01-10T22:19:26.753Z,75.30
2024-01-10T22:21:56.966Z,59.72
2024-01-10T22:24:27.355Z,71.93
2024-01-10T22:26:57.279Z,63.20
2024-01-10T22:29:29.209Z,70.15
2024-01-10T22:31:59.119Z,61.95
2024-01-10T22:34:32.314Z,62.13
2024-01-10T22:37:02.177Z,61.27
2024-01-10T22:39:34.172Z,65.65
2024-01-10T22:42:03.995Z,67.10
2024-01-10T22:44:33.944Z,61.05
2024-01-10T22:47:03.970Z,63.47
2024-01-10T22:49:36.861Z,62.47
2024-01-10T22:52:07.059Z,63.53
2024-01-10T22:54:37.368Z,63.50
2024-01-10T22:57:07.888Z,62.03
2024-01-10T22:59:38.748Z,60.70
2024-01-10T23:02:09.060Z,67.65
2024-01-10T23:04:41.510Z,65.03
2024-01-10T23:07:11.385Z,68.88
2024-01-10T23:09:41.163Z,63.30
2024-01-10T23:12:11.794Z,62.92
2024-01-10T23:14:41.826Z,59.85
2024-01-10T23:17:11.774Z,65.20
2024-01-10T23:19:44.580Z,60.60
2024-01-10T23:22:14.427Z,56.55
2024-01-10T23:24:44.290Z,57.65
2024-01-10T23:27:14.350Z,56.40
2024-01-10T23:29:44.431Z,55.08
2024-01-10T23:32:14.394Z,50.55
2024-01-10T23:34:46.986Z,48.65
2024-01-10T23:37:18.481Z,50.03
2024-01-10T23:39:48.299Z,58.35
2024-01-10T23:42:18.296Z,51.95
2024-01-10T23:44:48.290Z,62.47
2024-01-10T23:47:18.212Z,60.53
2024-01-10T23:49:51.320Z,54.35
2024-01-10T23:52:21.246Z,51.75
2024-01-10T23:54:52.225Z,55.20
2024-01-10T23:57:22.346Z,54.40
2024-01-10T23:59:52.233Z,51.75
